Time;durP1;ratioP1;P1;durP2;ratioP2;P2;SDS_P1;SDS_P2;PMS_P1;PMS_P2;Temp;Humidity;BMP_temperature;BMP_pressure;BME280_temperature;BME280_humidity;BME280_pressure;Samples;Min_cycle;Max_cycle;Signal;HPM_P1;HPM_P2
2022/06/06 00:03:01;;;;;;;67.07;22.85;;;;;;;15.75;88.92;101180.72;10415321;28;20029;-78
2022/06/06 00:08:04;;;;;;;78.72;24.08;;;;;;;15.72;88.67;101178.13;10412728;28;20137;-79
2022/06/06 00:13:07;;;;;;;67.68;23.30;;;;;;;15.57;88.25;101186.63;10415397;28;20499;-77
2022/06/06 00:18:09;;;;;;;86.63;24.63;;;;;;;15.58;88.15;101193.56;10412137;28;20413;-79
2022/06/06 00:23:10;;;;;;;91.68;24.73;;;;;;;15.35;88.79;101188.16;10419731;28;20068;-79
2022/06/06 00:28:12;;;;;;;88.90;25.75;;;;;;;15.25;89.53;101194.06;10415865;28;20056;-77
2022/06/06 00:38:35;;;;;;;106.22;29.05;;;;;;;15.16;89.92;101203.50;10414335;28;20104;-79
2022/06/06 00:43:41;;;;;;;79.47;26.33;;;;;;;14.97;88.94;101201.53;10413596;28;20496;-77
2022/06/06 00:48:43;;;;;;;70.22;27.05;;;;;;;14.99;88.05;101202.44;10391359;28;20057;-77
2022/06/06 00:53:51;;;;;;;76.55;27.65;;;;;;;15.19;87.65;101206.13;10414498;28;20049;-78
2022/06/06 00:58:57;;;;;;;74.65;25.58;;;;;;;15.03;87.60;101199.03;10409787;28;20142;-78
2022/06/06 01:04:02;;;;;;;64.53;24.15;;;;;;;15.01;87.08;101201.59;10390441;28;20254;-78
2022/06/06 01:09:04;;;;;;;62.50;23.17;;;;;;;15.01;86.41;101208.50;10411741;28;20381;-77
2022/06/06 01:14:07;;;;;;;52.35;21.40;;;;;;;15.05;85.70;101215.47;10411582;28;20056;-76
2022/06/06 01:19:42;;;;;;;58.75;20.75;;;;;;;15.14;85.23;101210.41;10412948;28;20564;-78
2022/06/06 01:25:21;;;;;;;44.03;18.50;;;;;;;15.03;85.53;101214.59;10410004;28;20579;-77
2022/06/06 01:30:29;;;;;;;48.17;18.63;;;;;;;15.05;85.45;101210.28;10407663;28;20069;-78
2022/06/06 01:35:34;;;;;;;51.00;18.90;;;;;;;15.08;85.58;101207.72;10410234;28;20443;-79
2022/06/06 01:40:39;;;;;;;47.40;17.20;;;;;;;15.02;85.63;101212.84;10411387;28;20497;-79
2022/06/06 01:45:44;;;;;;;39.88;15.90;;;;;;;14.87;85.56;101208.34;10412604;28;20559;-78
2022/06/06 01:50:46;;;;;;;34.17;14.55;;;;;;;14.92;85.61;101201.47;10394847;28;20050;-78
2022/06/06 01:55:49;;;;;;;32.38;13.95;;;;;;;15.01;84.88;101211.97;10416523;28;20140;-79
2022/06/06 02:00:51;;;;;;;39.47;15.45;;;;;;;14.97;84.64;101210.19;10411925;28;20045;-77
2022/06/06 02:05:53;;;;;;;42.85;17.25;;;;;;;15.00;85.67;101214.56;10412245;28;20099;-78
2022/06/06 02:10:55;;;;;;;37.90;17.02;;;;;;;14.99;85.20;101225.78;10393975;28;20049;-78
2022/06/06 02:15:58;;;;;;;43.53;16.85;;;;;;;15.00;85.51;101220.59;10411033;28;20053;-78
2022/06/06 02:21:01;;;;;;;45.17;17.70;;;;;;;15.06;85.35;101219.81;10411634;28;20059;-78
2022/06/06 02:26:03;;;;;;;36.63;15.00;;;;;;;14.96;85.36;101217.94;10405183;28;20045;-78
2022/06/06 02:31:13;;;;;;;37.13;14.63;;;;;;;14.88;85.43;101215.28;10410344;28;20041;-77
2022/06/06 02:36:15;;;;;;;37.45;15.32;;;;;;;14.93;85.63;101207.56;10417701;28;20050;-78
2022/06/06 02:41:17;;;;;;;42.13;17.20;;;;;;;14.90;86.27;101203.19;10410187;28;20045;-79
2022/06/06 02:46:19;;;;;;;43.38;17.25;;;;;;;14.93;86.14;101202.38;10410994;28;20057;-79
2022/06/06 02:51:21;;;;;;;38.75;15.55;;;;;;;14.84;86.60;101198.81;10410206;28;20118;-78
2022/06/06 02:56:23;;;;;;;43.42;17.55;;;;;;;14.71;86.85;101205.53;10410675;28;20041;-78
2022/06/06 03:01:24;;;;;;;39.13;17.20;;;;;;;14.73;85.90;101202.97;10390337;28;20049;-79
2022/06/06 03:06:32;;;;;;;40.80;17.25;;;;;;;14.91;85.85;101200.63;10410487;28;20041;-79
2022/06/06 03:11:44;;;;;;;40.85;15.93;;;;;;;14.87;85.99;101204.00;10393529;28;20607;-79
2022/06/06 03:23:13;;;;;;;37.63;16.98;;;;;;;14.99;85.74;101203.28;10421713;28;20077;-80
2022/06/06 03:28:18;;;;;;;44.67;16.73;;;;;;;15.12;85.06;101206.91;10423471;28;20099;-80
2022/06/06 03:33:42;;;;;;;42.47;17.48;;;;;;;15.05;85.56;101208.56;10392915;28;20447;-79
2022/06/06 03:39:06;;;;;;;47.35;17.98;;;;;;;15.18;85.21;101198.34;10413355;28;20049;-79
2022/06/06 03:44:35;;;;;;;40.53;17.08;;;;;;;15.12;85.39;101209.50;10413777;28;20042;-79
2022/06/06 03:49:46;;;;;;;42.67;17.33;;;;;;;15.16;85.25;101208.69;10421904;28;20111;-80
2022/06/06 03:55:22;;;;;;;38.50;16.60;;;;;;;15.17;85.39;101219.94;10408005;28;20061;-79
2022/06/06 04:00:25;;;;;;;38.45;15.63;;;;;;;15.25;85.22;101220.91;10413453;28;20049;-80
2022/06/06 04:05:29;;;;;;;34.97;13.52;;;;;;;15.04;85.64;101224.13;10416759;28;20456;-81
2022/06/06 04:11:03;;;;;;;32.33;13.85;;;;;;;15.32;84.79;101222.72;10403050;28;20103;-80
2022/06/06 04:16:22;;;;;;;29.08;12.68;;;;;;;15.43;84.99;101220.25;10397330;28;20436;-80
2022/06/06 04:21:39;;;;;;;27.20;10.55;;;;;;;15.31;85.66;101227.88;10416046;28;20075;-79
2022/06/06 04:27:14;;;;;;;19.20;9.27;;;;;;;15.29;85.87;101234.81;10415644;28;20099;-79
2022/06/06 04:32:18;;;;;;;19.77;8.85;;;;;;;15.20;85.69;101233.84;10411542;28;20492;-79
2022/06/06 04:37:35;;;;;;;20.73;9.00;;;;;;;15.17;86.46;101233.78;10400296;28;20554;-80
2022/06/06 04:43:19;;;;;;;17.83;8.02;;;;;;;15.11;87.23;101238.06;10427393;28;20076;-80
2022/06/06 04:48:22;;;;;;;19.90;9.50;;;;;;;15.13;87.33;101242.41;10407155;28;20124;-80
2022/06/06 04:53:32;;;;;;;27.40;12.17;;;;;;;15.00;88.06;101240.50;10409524;28;20041;-81
2022/06/06 04:58:37;;;;;;;33.50;14.45;;;;;;;14.97;88.21;101256.03;10409809;28;20060;-81
2022/06/06 05:03:39;;;;;;;40.17;18.77;;;;;;;14.93;87.71;101254.25;10416181;28;20124;-82
2022/06/06 05:09:15;;;;;;;52.80;23.95;;;;;;;15.02;87.11;101256.94;10410339;28;20069;-80
2022/06/06 05:14:52;;;;;;;59.17;23.02;;;;;;;15.18;85.47;101266.69;10414319;28;20049;-80
2022/06/06 05:20:12;;;;;;;52.65;23.90;;;;;;;15.26;84.64;101259.00;10387454;28;20615;-79
2022/06/06 05:25:21;;;;;;;48.63;22.65;;;;;;;15.11;83.37;101254.47;10423237;28;20041;-80
2022/06/06 05:30:39;;;;;;;53.72;25.40;;;;;;;15.18;83.25;101260.63;10415431;28;20512;-80
2022/06/06 05:36:10;;;;;;;50.17;23.58;;;;;;;15.27;82.40;101267.66;10415260;28;20046;-79
2022/06/06 05:41:32;;;;;;;53.08;23.67;;;;;;;15.26;82.94;101268.50;10415256;28;20057;-79
2022/06/06 05:46:52;;;;;;;51.35;22.90;;;;;;;15.32;82.99;101273.75;10414863;28;20520;-80
2022/06/06 05:52:11;;;;;;;48.35;23.52;;;;;;;15.14;83.58;101275.28;10404204;28;20052;-79
2022/06/06 05:57:31;;;;;;;39.72;20.00;;;;;;;15.26;81.49;101276.28;10414990;28;20057;-80
2022/06/06 06:03:00;;;;;;;37.80;19.80;;;;;;;15.37;78.33;101272.13;10383794;28;20076;-80
2022/06/06 06:08:30;;;;;;;35.42;20.75;;;;;;;15.43;79.02;101279.06;10414597;28;20080;-80
2022/06/06 06:13:40;;;;;;;40.17;20.63;;;;;;;14.97;80.57;101281.97;10398073;28;20459;-79
2022/06/06 06:19:06;;;;;;;39.63;22.88;;;;;;;14.97;80.50;101292.34;10410162;28;20092;-80
2022/06/06 06:24:11;;;;;;;39.55;22.73;;;;;;;15.27;80.03;101299.66;10378036;28;20057;-80
2022/06/06 06:29:13;;;;;;;37.85;22.27;;;;;;;15.25;79.34;101303.09;10412009;28;20041;-80
2022/06/06 06:34:35;;;;;;;38.22;22.15;;;;;;;15.71;78.09;101304.50;10412735;28;20044;-80
2022/06/06 06:39:48;;;;;;;34.50;21.13;;;;;;;15.63;76.56;101316.56;10411659;28;20057;-80
2022/06/06 06:44:58;;;;;;;31.60;19.13;;;;;;;16.11;74.17;101317.09;10394749;28;20068;-79
2022/06/06 06:50:07;;;;;;;25.20;15.80;;;;;;;15.99;73.05;101324.75;10412692;28;20099;-80
2022/06/06 06:55:47;;;;;;;22.95;14.57;;;;;;;15.64;71.81;101330.41;10411857;28;20045;-76
2022/06/06 07:00:54;;;;;;;18.88;12.40;;;;;;;15.71;71.29;101343.47;10403564;28;20037;-79
2022/06/06 07:11:55;;;;;;;22.70;15.25;;;;;;;16.09;73.42;101346.50;10382823;28;20053;-78
2022/06/06 07:17:02;;;;;;;18.98;12.77;;;;;;;16.55;69.01;101335.69;10421027;28;20485;-77
2022/06/06 07:22:05;;;;;;;17.77;12.82;;;;;;;16.57;69.00;101346.97;10403469;28;20045;-79
2022/06/06 07:27:09;;;;;;;17.33;11.73;;;;;;;16.07;68.55;101346.50;10420416;28;20046;-77
2022/06/06 07:32:15;;;;;;;18.05;11.98;;;;;;;16.69;69.43;101344.44;10415173;28;20481;-77
2022/06/06 07:38:05;;;;;;;13.10;8.70;;;;;;;17.04;65.81;101351.66;10419945;28;20412;-78
2022/06/06 07:43:34;;;;;;;14.60;10.57;;;;;;;16.55;66.21;101351.28;10418526;28;20037;-76
2022/06/06 07:49:03;;;;;;;18.02;12.75;;;;;;;16.88;66.28;101355.88;10410643;28;20088;-77
2022/06/06 07:54:11;;;;;;;13.77;10.00;;;;;;;16.57;66.34;101357.38;10419278;28;20509;-77
2022/06/06 07:59:36;;;;;;;18.55;9.10;;;;;;;17.26;63.51;101347.47;10418713;28;20050;-77
2022/06/06 08:05:08;;;;;;;10.93;7.20;;;;;;;17.90;62.21;101340.75;10420102;28;20037;-76
2022/06/06 08:10:30;;;;;;;11.10;7.03;;;;;;;17.06;62.22;101349.94;10417441;28;20464;-76
2022/06/06 08:16:26;;;;;;;9.95;7.43;;;;;;;17.12;63.82;101347.38;10416637;28;20041;-76
2022/06/06 08:21:46;;;;;;;7.75;5.78;;;;;;;16.80;61.43;101342.78;10415392;28;20550;-77
2022/06/06 08:26:48;;;;;;;;;;;;;;;16.50;62.48;101352.09;10433488;28;20042;-76
2022/06/06 08:31:50;;;;;;;10.25;6.85;;;;;;;17.74;62.07;101352.88;10418010;28;19971;-76
2022/06/06 08:37:13;;;;;;;11.95;7.18;;;;;;;18.10;60.95;101352.13;10416866;28;20492;-76
2022/06/06 08:42:33;;;;;;;10.23;7.65;;;;;;;17.31;62.43;101357.00;10401441;28;20057;-76
2022/06/06 08:54:37;;;;;;;9.32;7.45;;;;;;;17.18;60.68;101366.47;10414728;28;20037;-75
2022/06/06 09:00:02;;;;;;;12.40;5.70;;;;;;;16.46;60.74;101373.75;10410992;28;20523;-76
2022/06/06 09:05:40;;;;;;;5.68;4.90;;;;;;;16.71;61.66;101368.75;10418156;28;20037;-76
2022/06/06 09:11:23;;;;;;;5.80;3.90;;;;;;;17.01;58.75;101367.28;10416173;28;20065;-75
2022/06/06 09:16:49;;;;;;;5.15;4.13;;;;;;;17.67;60.30;101358.03;10429648;28;20045;-77
2022/06/06 09:22:23;;;;;;;4.95;3.38;;;;;;;17.73;57.75;101374.59;10413138;28;20041;-76
2022/06/06 09:27:43;;;;;;;3.30;3.00;;;;;;;18.37;55.65;101351.28;10416804;28;20049;-77
2022/06/06 09:33:22;;;;;;;3.03;2.30;;;;;;;18.24;53.57;101346.03;10408271;28;20454;-75
2022/06/06 09:38:53;;;;;;;3.47;2.75;;;;;;;17.88;58.48;101346.81;10416295;28;20046;-76
2022/06/06 09:44:01;;;;;;;3.88;3.00;;;;;;;17.61;57.20;101353.66;10399342;28;20049;-76
2022/06/06 09:49:26;;;;;;;5.35;3.65;;;;;;;17.91;58.60;101352.03;10414780;28;20512;-77
2022/06/06 10:00:22;;;;;;;6.57;3.58;;;;;;;18.33;56.59;101346.91;10411850;28;20053;-75
2022/06/06 10:06:10;;;;;;;4.22;3.63;;;;;;;17.88;59.05;101346.81;10416268;28;20045;-76
2022/06/06 10:11:24;;;;;;;4.30;3.25;;;;;;;18.79;55.71;101338.22;10361422;28;20060;-76
2022/06/06 10:17:04;;;;;;;5.63;2.95;;;;;;;18.58;54.34;101326.91;10410690;28;20046;-76
2022/06/06 10:22:31;;;;;;;3.35;1.90;;;;;;;18.73;54.44;101326.06;10412406;28;20386;-76
2022/06/06 10:27:35;;;;;;;2.75;1.73;;;;;;;18.37;57.13;101320.00;10413930;28;20531;-76
2022/06/06 10:33:16;;;;;;;5.32;2.17;;;;;;;17.67;56.95;101317.25;10397524;28;20049;-75
2022/06/06 10:38:50;;;;;;;3.65;2.00;;;;;;;18.71;57.03;101320.84;10412964;28;20041;-75
2022/06/06 10:44:10;;;;;;;2.88;1.83;;;;;;;18.77;56.74;101313.88;10411205;28;20374;-75
2022/06/06 10:49:46;;;;;;;5.38;2.05;;;;;;;18.73;56.38;101301.72;10413839;28;20045;-76
2022/06/06 10:55:08;;;;;;;3.83;1.90;;;;;;;19.74;52.28;101299.59;10412264;28;20045;-75
2022/06/06 11:00:19;;;;;;;4.90;1.33;;;;;;;18.70;54.17;101303.44;10414607;28;20046;-76
2022/06/06 11:05:39;;;;;;;3.90;1.30;;;;;;;19.70;55.57;101293.53;10413399;28;20100;-75
2022/06/06 11:10:52;;;;;;;3.60;1.35;;;;;;;19.39;52.16;101292.84;10401905;28;20057;-75
2022/06/06 11:16:16;;;;;;;2.55;0.98;;;;;;;18.91;53.35;101282.53;10414353;28;20038;-77
2022/06/06 11:21:43;;;;;;;2.00;0.90;;;;;;;19.46;51.60;101297.16;10407414;28;20045;-76
2022/06/06 11:27:18;;;;;;;3.60;0.80;;;;;;;19.37;52.40;101286.72;10413614;28;20045;-76
2022/06/06 11:32:26;;;;;;;4.00;1.20;;;;;;;18.35;54.34;101283.47;10421853;28;20051;-75
2022/06/06 11:37:44;;;;;;;3.88;1.20;;;;;;;19.69;54.64;101268.25;10407322;28;20038;-75
2022/06/06 11:43:04;;;;;;;4.10;1.00;;;;;;;19.76;54.45;101267.34;10440837;28;20115;-76
2022/06/06 11:48:21;;;;;;;4.28;0.95;;;;;;;19.41;51.74;101270.16;10412673;28;20052;-75
2022/06/06 11:53:50;;;;;;;3.15;1.13;;;;;;;19.10;51.51;101257.25;10408679;28;20045;-75
2022/06/06 11:59:29;;;;;;;2.30;1.00;;;;;;;18.58;52.29;101279.94;10414178;28;20045;-76
2022/06/06 12:04:50;;;;;;;3.00;0.88;;;;;;;18.91;53.84;101279.91;10420307;28;20045;-75
2022/06/06 12:10:14;;;;;;;3.40;1.30;;;;;;;19.18;58.38;101268.50;10415918;28;20124;-75
2022/06/06 12:15:34;;;;;;;3.15;1.30;;;;;;;19.53;59.12;101266.59;10419873;28;20048;-75
2022/06/06 12:21:14;;;;;;;1.98;1.20;;;;;;;18.73;58.49;101255.59;10419784;28;20342;-76
2022/06/06 12:26:44;;;;;;;3.17;1.60;;;;;;;18.47;58.21;101247.81;10404472;28;20057;-75
2022/06/06 12:32:09;;;;;;;3.53;1.67;;;;;;;18.70;58.11;101243.41;10420730;28;20406;-76
2022/06/06 12:37:19;;;;;;;2.88;1.70;;;;;;;19.27;59.48;101241.50;10418255;28;20145;-75
2022/06/06 12:42:33;;;;;;;1.60;1.02;;;;;;;19.73;54.04;101235.13;10404250;28;20503;-75
2022/06/06 12:47:44;;;;;;;2.83;1.08;;;;;;;19.25;52.08;101232.78;10417307;28;20050;-75
2022/06/06 12:53:17;;;;;;;2.75;1.17;;;;;;;19.52;50.75;101226.56;10417513;28;20405;-75
2022/06/06 12:58:21;;;;;;;1.77;0.88;;;;;;;19.11;51.40;101231.13;10417209;28;20041;-75
2022/06/06 13:03:38;;;;;;;2.80;0.93;;;;;;;18.42;54.14;101228.69;10418346;28;20045;-75
2022/06/06 13:09:03;;;;;;;3.70;1.38;;;;;;;18.39;54.88;101227.81;10417445;28;20057;-76
2022/06/06 13:14:17;;;;;;;2.75;1.17;;;;;;;18.39;53.64;101240.00;10418526;28;20049;-75
2022/06/06 13:20:03;;;;;;;6.88;1.80;;;;;;;15.89;70.09;101299.56;10424071;28;20053;-76
2022/06/06 13:25:15;;;;;;;3.90;2.03;;;;;;;15.64;75.69;101286.25;10434876;28;20053;-76
2022/06/06 13:30:25;;;;;;;4.05;2.17;;;;;;;15.74;76.33;101271.63;10395964;28;20041;-74
2022/06/06 13:36:04;;;;;;;3.60;1.80;;;;;;;16.33;73.90;101260.09;10406194;28;20103;-75
2022/06/06 13:41:09;;;;;;;4.40;1.97;;;;;;;17.23;72.72;101261.50;10410332;28;20045;-75
2022/06/06 13:46:37;;;;;;;4.50;2.00;;;;;;;17.85;71.94;101247.75;10425581;28;20090;-75
2022/06/06 13:51:57;;;;;;;2.47;1.90;;;;;;;17.87;69.02;101233.00;10421116;28;20103;-76
2022/06/06 13:57:19;;;;;;;3.10;1.70;;;;;;;17.59;69.18;101243.41;10422693;28;20144;-76
2022/06/06 14:02:40;;;;;;;2.35;1.70;;;;;;;17.73;67.67;101235.59;10413503;28;20045;-75
2022/06/06 14:07:57;;;;;;;6.78;1.92;;;;;;;17.71;66.74;101235.59;10412267;28;20041;-75
2022/06/06 14:13:14;;;;;;;3.42;1.63;;;;;;;17.83;65.83;101242.56;10413417;28;20037;-75
2022/06/06 14:18:26;;;;;;;3.25;1.77;;;;;;;17.83;66.03;101239.09;10412899;28;20034;-76
2022/06/06 14:23:37;;;;;;;3.85;1.67;;;;;;;17.76;63.94;101239.06;10414468;28;20048;-75
2022/06/06 14:28:42;;;;;;;4.07;1.33;;;;;;;17.92;62.05;101234.75;10414192;28;20056;-75
2022/06/06 14:33:57;;;;;;;3.45;1.40;;;;;;;18.00;62.68;101232.16;10415940;28;20068;-76
2022/06/06 14:39:03;;;;;;;2.00;1.13;;;;;;;17.85;60.61;101238.22;10429834;28;20034;-76
2022/06/06 14:44:05;;;;;;;4.55;1.00;;;;;;;17.44;59.12;101247.69;10413111;28;20040;-75
2022/06/06 14:49:07;;;;;;;7.90;1.45;;;;;;;17.21;60.36;101252.81;10424696;28;20072;-76
2022/06/06 14:54:12;;;;;;;6.50;1.30;;;;;;;17.21;61.88;101258.03;10410009;28;20045;-74
2022/06/06 14:59:17;;;;;;;3.33;1.38;;;;;;;17.01;62.77;101263.16;10406574;28;20029;-74
2022/06/06 15:04:27;;;;;;;3.83;1.50;;;;;;;17.19;64.16;101256.28;10412143;28;20045;-75
2022/06/06 15:09:38;;;;;;;4.07;1.30;;;;;;;17.23;63.26;101252.84;10410116;28;20111;-75
2022/06/06 15:14:40;;;;;;;1.88;1.50;;;;;;;17.25;64.08;101256.28;10426028;28;20049;-76
2022/06/06 15:19:53;;;;;;;4.53;1.27;;;;;;;17.11;64.38;101258.88;10410802;28;20467;-74
2022/06/06 15:25:26;;;;;;;2.45;1.52;;;;;;;17.01;64.34;101252.75;10411086;28;20560;-75
2022/06/06 15:30:38;;;;;;;3.28;1.48;;;;;;;16.67;65.25;101247.31;10406614;28;20056;-76
2022/06/06 15:35:53;;;;;;;5.47;1.48;;;;;;;16.69;63.64;101240.41;10416703;28;20046;-75
2022/06/06 15:41:44;;;;;;;1.80;1.20;;;;;;;16.57;64.55;101255.94;10402755;28;20046;-74
2022/06/06 15:46:53;;;;;;;5.20;1.17;;;;;;;16.71;63.83;101256.88;10389546;28;20416;-76
2022/06/06 15:52:07;;;;;;;3.40;1.45;;;;;;;16.28;67.41;101286.06;10420557;28;20050;-75
2022/06/06 15:57:43;;;;;;;4.03;2.00;;;;;;;15.95;71.79;101278.81;10407954;28;20057;-76
2022/06/06 16:03:13;;;;;;;2.45;1.92;;;;;;;16.17;71.84;101278.16;10416165;28;20045;-76
2022/06/06 16:08:24;;;;;;;4.53;1.90;;;;;;;16.21;71.39;101275.56;10394610;28;20103;-75
2022/06/06 16:13:45;;;;;;;4.10;2.03;;;;;;;16.19;71.83;101272.97;10431763;28;20409;-75
2022/06/06 16:19:16;;;;;;;4.57;2.05;;;;;;;16.10;71.85;101265.97;10417456;28;20069;-75
2022/06/06 16:24:23;;;;;;;3.40;1.80;;;;;;;16.14;71.87;101267.72;10426625;28;20065;-75
2022/06/06 16:29:34;;;;;;;4.10;2.10;;;;;;;15.86;72.42;101288.25;10416191;28;20073;-76
2022/06/06 16:34:37;;;;;;;6.70;2.97;;;;;;;15.13;75.92;101294.31;10417474;28;20080;-75
2022/06/06 16:39:54;;;;;;;4.28;2.70;;;;;;;14.80;80.87;101320.66;10422352;28;20115;-75
2022/06/06 16:51:05;;;;;;;2.45;1.25;;;;;;;14.09;83.31;101328.09;10409778;28;20037;-75
2022/06/06 16:56:36;;;;;;;0.85;0.40;;;;;;;13.46;84.16;101333.78;10399444;28;20053;-76
2022/06/06 17:01:50;;;;;;;0.30;0.30;;;;;;;13.45;84.93;101331.16;10399966;28;20049;-76
2022/06/06 17:12:22;;;;;;;0.43;0.43;;;;;;;13.26;85.08;101348.84;10430045;28;20136;-75
2022/06/06 17:17:24;;;;;;;0.80;0.55;;;;;;;13.28;84.64;101352.34;10408632;28;20096;-76
2022/06/06 17:22:31;;;;;;;1.50;0.70;;;;;;;13.08;84.99;101351.91;10414355;28;20056;-75
2022/06/06 17:27:58;;;;;;;0.63;0.50;;;;;;;13.15;85.79;101356.38;10414416;28;20075;-75
2022/06/06 17:33:18;;;;;;;1.15;0.60;;;;;;;13.08;85.79;101357.06;10403835;28;20409;-77
2022/06/06 17:38:22;;;;;;;3.72;0.90;;;;;;;13.28;86.08;101362.69;10414855;28;20041;-75
2022/06/06 17:43:46;;;;;;;1.52;0.90;;;;;;;13.39;86.07;101362.06;10413908;28;20095;-76
2022/06/06 17:49:04;;;;;;;0.95;0.70;;;;;;;13.43;86.25;101366.50;10420857;28;20049;-76
2022/06/06 17:54:21;;;;;;;2.53;1.30;;;;;;;13.43;86.61;101364.78;10413973;28;20049;-76
2022/06/06 17:59:31;;;;;;;2.17;1.10;;;;;;;13.53;86.04;101371.00;10405654;28;20041;-77
2022/06/06 18:05:00;;;;;;;1.88;1.00;;;;;;;13.45;85.85;101367.38;10410817;28;20056;-75
2022/06/06 18:10:20;;;;;;;1.92;1.00;;;;;;;13.60;85.99;101372.03;10412196;28;20052;-76
2022/06/06 18:15:45;;;;;;;1.20;0.90;;;;;;;13.69;86.33;101368.75;10419828;28;20452;-76
2022/06/06 18:20:47;;;;;;;1.35;1.00;;;;;;;13.54;86.42;101377.06;10396279;28;20045;-76
2022/06/06 18:25:51;;;;;;;2.28;1.27;;;;;;;13.52;86.25;101366.66;10412355;28;20311;-75
2022/06/06 18:30:55;;;;;;;1.90;1.10;;;;;;;13.55;86.35;101379.69;10412066;28;20533;-75
2022/06/06 18:35:58;;;;;;;1.92;1.27;;;;;;;13.46;86.30;101400.19;10410611;28;20041;-75
2022/06/06 18:41:04;;;;;;;2.35;1.60;;;;;;;13.66;86.29;101402.34;10409786;28;20115;-76
2022/06/06 18:46:07;;;;;;;1.95;1.55;;;;;;;13.59;86.45;101402.19;10411011;28;20042;-75
2022/06/06 18:51:13;;;;;;;1.90;1.40;;;;;;;13.45;86.40;101393.25;10409162;28;20410;-75
2022/06/06 18:56:29;;;;;;;2.65;1.35;;;;;;;13.43;86.49;101397.56;10399247;28;20100;-75
2022/06/06 19:01:40;;;;;;;1.90;1.40;;;;;;;13.52;86.37;101404.63;10392258;28;20421;-75
2022/06/06 19:07:03;;;;;;;2.92;1.20;;;;;;;13.44;86.25;101409.66;10402665;28;20080;-76
2022/06/06 19:12:20;;;;;;;1.58;1.23;;;;;;;13.37;86.77;101399.94;10398752;28;20104;-76
2022/06/06 19:17:32;;;;;;;1.48;1.23;;;;;;;13.10;87.29;101395.91;10413521;28;20091;-76
2022/06/06 19:23:03;;;;;;;2.08;1.55;;;;;;;13.23;87.56;101408.28;10418665;28;20460;-76
2022/06/06 19:28:15;;;;;;;2.65;1.30;;;;;;;13.13;87.09;101401.16;10417324;28;20044;-76
2022/06/06 19:33:26;;;;;;;1.95;1.23;;;;;;;13.07;87.68;101406.19;10418038;28;20060;-76
2022/06/06 19:38:30;;;;;;;4.18;1.50;;;;;;;13.15;87.32;101404.63;10432619;28;20111;-77
2022/06/06 19:44:20;;;;;;;1.60;1.08;;;;;;;13.01;87.09;101402.59;10420820;28;20045;-77
2022/06/06 19:49:27;;;;;;;3.15;1.42;;;;;;;12.84;87.50;101399.63;10400249;28;20048;-77
2022/06/06 19:54:29;;;;;;;4.55;1.48;;;;;;;12.86;87.85;101404.81;10422375;28;20045;-76
2022/06/06 19:59:38;;;;;;;4.47;1.40;;;;;;;12.80;88.28;101402.09;10416388;28;20488;-77
2022/06/06 20:04:45;;;;;;;2.55;1.52;;;;;;;12.70;88.27;101393.22;10414815;28;20083;-76
2022/06/06 20:09:57;;;;;;;2.00;1.30;;;;;;;12.60;88.05;101386.06;10412403;28;20546;-76
2022/06/06 20:15:17;;;;;;;2.08;1.48;;;;;;;12.64;87.90;101391.34;10417562;28;20045;-76
2022/06/06 20:20:23;;;;;;;2.05;1.50;;;;;;;12.57;87.86;101398.94;10408828;28;20042;-77
2022/06/06 20:25:32;;;;;;;1.70;1.30;;;;;;;12.50;88.11;101390.13;10409713;28;20072;-76
2022/06/06 20:32:10;;;;;;;2.78;1.20;;;;;;;12.62;88.01;101390.44;10416896;28;20160;-77
2022/06/06 20:36:20;;;;;;;3.97;1.60;;;;;;;12.44;87.96;101396.00;10417192;28;20042;-76
2022/06/06 20:41:25;;;;;;;2.10;1.40;;;;;;;12.48;87.66;101397.84;10423908;28;20444;-77
2022/06/06 20:46:30;;;;;;;2.05;1.50;;;;;;;12.49;88.07;101385.78;10415926;28;20556;-76
2022/06/06 20:51:35;;;;;;;1.25;1.15;;;;;;;12.49;87.78;101398.72;10415427;28;20049;-77
2022/06/06 20:56:42;;;;;;;2.78;1.45;;;;;;;12.40;87.95;101394.19;10413343;28;20056;-76
2022/06/06 21:01:44;;;;;;;1.60;1.30;;;;;;;12.35;88.78;101388.91;10416212;28;20536;-77
2022/06/06 21:06:47;;;;;;;2.05;1.73;;;;;;;12.43;88.42;101395.97;10414985;28;20393;-76
2022/06/06 21:11:56;;;;;;;2.45;1.80;;;;;;;12.41;89.04;101388.19;10415646;28;20045;-76
2022/06/06 21:16:58;;;;;;;2.47;1.50;;;;;;;12.42;89.40;101381.31;10415968;28;20497;-76
2022/06/06 21:22:01;;;;;;;3.75;1.70;;;;;;;12.46;89.53;101380.56;10415118;28;20045;-78
2022/06/06 21:27:04;;;;;;;3.95;1.98;;;;;;;12.48;89.45;101373.72;10431239;28;20041;-76
2022/06/06 21:32:06;;;;;;;5.10;2.15;;;;;;;12.68;88.91;101364.75;10400807;28;20049;-76
2022/06/06 21:37:10;;;;;;;2.88;2.13;;;;;;;12.68;88.80;101364.75;10413409;28;20048;-77
2022/06/06 21:42:12;;;;;;;3.28;2.72;;;;;;;12.65;88.65;101364.69;10410898;28;20049;-76
2022/06/06 21:47:14;;;;;;;3.60;2.70;;;;;;;12.98;88.15;101366.34;10412570;28;20060;-76
2022/06/06 21:52:16;;;;;;;3.33;2.40;;;;;;;12.91;87.21;101368.72;10411116;28;20439;-76
2022/06/06 21:57:18;;;;;;;4.50;3.00;;;;;;;12.86;87.62;101371.19;10404193;28;20053;-76
2022/06/06 22:02:21;;;;;;;4.85;2.97;;;;;;;12.72;87.89;101364.81;10412708;28;20088;-76
2022/06/06 22:13:57;;;;;;;5.95;4.07;;;;;;;12.80;87.63;101363.31;10421346;28;20480;-77
2022/06/06 22:18:58;;;;;;;6.25;4.68;;;;;;;12.73;87.73;101364.00;10408499;28;20448;-77
2022/06/06 22:24:01;;;;;;;6.38;4.95;;;;;;;12.87;86.68;101351.41;10413233;28;20385;-76
2022/06/06 22:29:35;;;;;;;6.03;4.75;;;;;;;12.91;86.49;101354.09;10317931;28;20054;-76
2022/06/06 22:34:37;;;;;;;7.13;5.00;;;;;;;12.80;86.57;101343.50;10326460;28;20055;-76
2022/06/06 22:39:39;;;;;;;7.32;5.32;;;;;;;12.80;87.07;101345.19;10324698;28;20137;-77
2022/06/06 22:45:07;;;;;;;6.50;5.20;;;;;;;12.74;86.98;101339.88;10309077;28;20149;-76
2022/06/06 22:50:09;;;;;;;5.72;4.45;;;;;;;12.92;86.08;101329.09;10324780;28;20365;-76
2022/06/06 22:55:11;;;;;;;6.75;4.80;;;;;;;12.90;86.03;101326.50;10323515;28;20101;-77
2022/06/06 23:00:13;;;;;;;5.07;3.92;;;;;;;12.88;86.41;101317.81;10385139;28;20092;-77
2022/06/06 23:05:16;;;;;;;5.47;4.07;;;;;;;13.01;86.15;101318.97;10413925;28;20100;-76
2022/06/06 23:10:18;;;;;;;6.35;4.53;;;;;;;12.76;87.01;101314.97;10410238;28;20427;-76
2022/06/06 23:15:20;;;;;;;7.78;5.22;;;;;;;12.85;87.18;101317.72;10394565;28;20104;-76
2022/06/06 23:20:22;;;;;;;8.20;5.60;;;;;;;12.82;87.14;101313.38;10409059;28;20038;-76
2022/06/06 23:25:24;;;;;;;8.82;6.25;;;;;;;12.93;86.97;101305.84;10410856;28;20042;-76
2022/06/06 23:30:26;;;;;;;8.63;6.70;;;;;;;12.91;87.16;101307.56;10411042;28;20056;-76
2022/06/06 23:35:28;;;;;;;11.55;7.10;;;;;;;13.00;86.41;101306.88;10410799;28;20045;-76
2022/06/06 23:40:33;;;;;;;9.75;7.85;;;;;;;13.11;86.08;101289.00;10393359;28;20436;-76
2022/06/06 23:51:03;;;;;;;11.07;9.00;;;;;;;12.97;86.65;101280.94;10409924;28;20052;-77
2022/06/06 23:56:16;;;;;;;12.75;9.43;;;;;;;13.00;87.03;101281.88;10412829;28;20041;-77
